sensor_id;sensor_type;location;lat;lon;timestamp;pressure;altitude;pressure_sealevel;temperature;humidity
51617;BME280;37697;52.588;13.394;2023-05-25T00:04:15;101838.80;;;8.70;72.07
51617;BME280;37697;52.588;13.394;2023-05-25T00:09:23;101836.85;;;8.72;72.67
51617;BME280;37697;52.588;13.394;2023-05-25T00:14:29;101845.19;;;8.80;72.88
51617;BME280;37697;52.588;13.394;2023-05-25T00:19:35;101843.44;;;8.88;73.38
51617;BME280;37697;52.588;13.394;2023-05-25T00:24:41;101842.89;;;8.98;73.87
51617;BME280;37697;52.588;13.394;2023-05-25T00:29:47;101844.36;;;9.07;73.61
51617;BME280;37697;52.588;13.394;2023-05-25T00:34:52;101844.98;;;9.16;74.13
51617;BME280;37697;52.588;13.394;2023-05-25T00:39:58;101841.55;;;9.23;74.25
51617;BME280;37697;52.588;13.394;2023-05-25T00:45:05;101836.19;;;9.30;74.23
51617;BME280;37697;52.588;13.394;2023-05-25T00:50:14;101833.58;;;9.36;74.09
51617;BME280;37697;52.588;13.394;2023-05-25T00:55:21;101833.41;;;9.40;74.09
51617;BME280;37697;52.588;13.394;2023-05-25T01:00:28;101836.46;;;9.42;74.05
51617;BME280;37697;52.588;13.394;2023-05-25T01:05:35;101835.14;;;9.42;73.68
51617;BME280;37697;52.588;13.394;2023-05-25T01:10:43;101832.70;;;9.38;73.82
51617;BME280;37697;52.588;13.394;2023-05-25T01:15:51;101836.31;;;9.34;73.92
51617;BME280;37697;52.588;13.394;2023-05-25T01:21:01;101839.09;;;9.27;73.72
51617;BME280;37697;52.588;13.394;2023-05-25T01:26:18;101839.81;;;9.20;73.68
51617;BME280;37697;52.588;13.394;2023-05-25T01:31:26;101837.41;;;9.11;73.62
51617;BME280;37697;52.588;13.394;2023-05-25T01:36:33;101841.99;;;9.05;73.50
51617;BME280;37697;52.588;13.394;2023-05-25T01:41:39;101845.52;;;8.98;73.82
51617;BME280;37697;52.588;13.394;2023-05-25T01:46:44;101845.92;;;8.91;73.50
51617;BME280;37697;52.588;13.394;2023-05-25T01:51:57;101843.61;;;8.82;73.77
51617;BME280;37697;52.588;13.394;2023-05-25T01:57:07;101838.71;;;8.72;73.65
51617;BME280;37697;52.588;13.394;2023-05-25T02:02:16;101832.90;;;8.65;73.82
51617;BME280;37697;52.588;13.394;2023-05-25T02:07:22;101837.73;;;8.58;74.04
51617;BME280;37697;52.588;13.394;2023-05-25T02:12:28;101830.20;;;8.52;74.01
51617;BME280;37697;52.588;13.394;2023-05-25T02:17:33;101825.84;;;8.45;74.22
51617;BME280;37697;52.588;13.394;2023-05-25T02:22:41;101832.06;;;8.40;74.46
51617;BME280;37697;52.588;13.394;2023-05-25T02:27:47;101843.80;;;8.32;74.24
51617;BME280;37697;52.588;13.394;2023-05-25T02:32:53;101844.41;;;8.25;74.62
51617;BME280;37697;52.588;13.394;2023-05-25T02:37:58;101848.08;;;8.19;74.63
51617;BME280;37697;52.588;13.394;2023-05-25T02:43:04;101850.77;;;8.14;74.95
51617;BME280;37697;52.588;13.394;2023-05-25T02:48:09;101849.54;;;8.07;74.90
51617;BME280;37697;52.588;13.394;2023-05-25T02:53:15;101848.52;;;8.02;75.26
51617;BME280;37697;52.588;13.394;2023-05-25T02:58:20;101849.08;;;7.99;75.20
51617;BME280;37697;52.588;13.394;2023-05-25T03:03:26;101845.88;;;7.96;75.33
51617;BME280;37697;52.588;13.394;2023-05-25T03:08:32;101847.92;;;7.92;75.50
51617;BME280;37697;52.588;13.394;2023-05-25T03:13:37;101845.86;;;7.89;75.51
51617;BME280;37697;52.588;13.394;2023-05-25T03:18:43;101842.80;;;7.86;75.90
51617;BME280;37697;52.588;13.394;2023-05-25T03:23:48;101852.36;;;7.83;76.02
51617;BME280;37697;52.588;13.394;2023-05-25T03:28:53;101859.40;;;7.78;75.95
51617;BME280;37697;52.588;13.394;2023-05-25T03:33:59;101860.98;;;7.78;75.91
51617;BME280;37697;52.588;13.394;2023-05-25T03:39:04;101858.17;;;7.76;76.26
51617;BME280;37697;52.588;13.394;2023-05-25T03:44:11;101863.99;;;7.76;76.32
51617;BME280;37697;52.588;13.394;2023-05-25T03:49:17;101861.13;;;7.76;76.62
51617;BME280;37697;52.588;13.394;2023-05-25T03:54:22;101861.69;;;7.78;76.81
51617;BME280;37697;52.588;13.394;2023-05-25T03:59:28;101872.31;;;7.80;76.92
51617;BME280;37697;52.588;13.394;2023-05-25T04:04:33;101882.71;;;7.82;77.04
51617;BME280;37697;52.588;13.394;2023-05-25T04:09:39;101892.77;;;7.90;77.50
51617;BME280;37697;52.588;13.394;2023-05-25T04:14:44;101894.48;;;8.02;77.72
51617;BME280;37697;52.588;13.394;2023-05-25T04:19:50;101891.05;;;8.18;78.01
51617;BME280;37697;52.588;13.394;2023-05-25T04:24:56;101892.08;;;9.18;76.42
51617;BME280;37697;52.588;13.394;2023-05-25T04:30:02;101905.87;;;10.03;75.19
51617;BME280;37697;52.588;13.394;2023-05-25T04:35:08;101904.20;;;10.15;76.72
51617;BME280;37697;52.588;13.394;2023-05-25T04:40:14;101903.47;;;10.12;76.55
51617;BME280;37697;52.588;13.394;2023-05-25T04:45:19;101904.88;;;10.04;76.26
51617;BME280;37697;52.588;13.394;2023-05-25T04:50:25;101901.12;;;10.58;75.90
51617;BME280;37697;52.588;13.394;2023-05-25T04:55:31;101892.05;;;11.10;75.30
51617;BME280;37697;52.588;13.394;2023-05-25T05:00:36;101891.70;;;11.23;75.19
51617;BME280;37697;52.588;13.394;2023-05-25T05:05:45;101892.47;;;11.71;74.34
51617;BME280;37697;52.588;13.394;2023-05-25T05:10:51;101897.66;;;12.09;74.40
51617;BME280;37697;52.588;13.394;2023-05-25T05:15:56;101896.02;;;12.30;74.14
51617;BME280;37697;52.588;13.394;2023-05-25T05:21:02;101887.85;;;12.59;74.06
51617;BME280;37697;52.588;13.394;2023-05-25T05:26:07;101892.17;;;12.71;73.81
51617;BME280;37697;52.588;13.394;2023-05-25T05:31:15;101902.54;;;12.80;73.11
51617;BME280;37697;52.588;13.394;2023-05-25T05:36:22;101909.69;;;12.90;73.26
51617;BME280;37697;52.588;13.394;2023-05-25T05:41:28;101910.89;;;13.21;73.13
51617;BME280;37697;52.588;13.394;2023-05-25T05:46:34;101919.25;;;13.58;72.40
51617;BME280;37697;52.588;13.394;2023-05-25T05:51:40;101921.09;;;13.72;71.84
51617;BME280;37697;52.588;13.394;2023-05-25T05:56:46;101922.58;;;13.89;71.64
51617;BME280;37697;52.588;13.394;2023-05-25T06:01:51;101922.04;;;14.11;71.00
51617;BME280;37697;52.588;13.394;2023-05-25T06:06:57;101928.17;;;14.41;70.44
51617;BME280;37697;52.588;13.394;2023-05-25T06:12:03;101930.89;;;14.50;69.67
51617;BME280;37697;52.588;13.394;2023-05-25T06:17:10;101932.95;;;14.58;69.53
51617;BME280;37697;52.588;13.394;2023-05-25T06:22:16;101939.59;;;14.78;69.86
51617;BME280;37697;52.588;13.394;2023-05-25T06:27:21;101934.31;;;14.97;69.31
51617;BME280;37697;52.588;13.394;2023-05-25T06:32:27;101935.54;;;15.07;69.19
51617;BME280;37697;52.588;13.394;2023-05-25T06:37:33;101932.09;;;15.22;68.72
51617;BME280;37697;52.588;13.394;2023-05-25T06:42:43;101935.52;;;15.40;68.24
51617;BME280;37697;52.588;13.394;2023-05-25T06:47:48;101937.81;;;15.57;67.82
51617;BME280;37697;52.588;13.394;2023-05-25T06:52:54;101937.81;;;15.74;67.59
51617;BME280;37697;52.588;13.394;2023-05-25T06:57:59;101938.72;;;15.98;66.88
51617;BME280;37697;52.588;13.394;2023-05-25T07:03:04;101940.73;;;16.32;65.73
51617;BME280;37697;52.588;13.394;2023-05-25T07:08:10;101942.20;;;16.48;64.88
51617;BME280;37697;52.588;13.394;2023-05-25T07:13:15;101944.85;;;16.65;64.44
51617;BME280;37697;52.588;13.394;2023-05-25T07:18:21;101943.48;;;16.85;64.17
51617;BME280;37697;52.588;13.394;2023-05-25T07:23:26;101945.30;;;17.01;63.43
51617;BME280;37697;52.588;13.394;2023-05-25T07:28:32;101945.46;;;17.14;62.45
51617;BME280;37697;52.588;13.394;2023-05-25T07:33:37;101946.50;;;17.28;61.80
51617;BME280;37697;52.588;13.394;2023-05-25T07:38:43;101950.16;;;17.49;61.23
51617;BME280;37697;52.588;13.394;2023-05-25T07:43:48;101948.70;;;17.63;60.44
51617;BME280;37697;52.588;13.394;2023-05-25T07:48:53;101952.61;;;17.45;59.40
51617;BME280;37697;52.588;13.394;2023-05-25T07:54:00;101964.37;;;17.11;59.09
51617;BME280;37697;52.588;13.394;2023-05-25T07:59:05;101967.90;;;17.19;59.22
51617;BME280;37697;52.588;13.394;2023-05-25T08:04:11;101968.05;;;17.34;58.65
51617;BME280;37697;52.588;13.394;2023-05-25T08:09:17;101966.38;;;17.40;58.32
51617;BME280;37697;52.588;13.394;2023-05-25T08:14:22;101965.34;;;17.23;58.11
51617;BME280;37697;52.588;13.394;2023-05-25T08:19:28;101965.77;;;17.02;58.05
51617;BME280;37697;52.588;13.394;2023-05-25T08:24:35;101969.02;;;17.21;58.11
51617;BME280;37697;52.588;13.394;2023-05-25T08:29:41;101965.27;;;17.42;57.65
51617;BME280;37697;52.588;13.394;2023-05-25T08:34:46;101964.77;;;17.79;56.88
51617;BME280;37697;52.588;13.394;2023-05-25T08:39:51;101968.16;;;18.01;55.96
51617;BME280;37697;52.588;13.394;2023-05-25T08:44:57;101966.29;;;17.82;54.97
51617;BME280;37697;52.588;13.394;2023-05-25T08:50:03;101963.75;;;17.73;55.55
51617;BME280;37697;52.588;13.394;2023-05-25T08:55:11;101967.98;;;17.69;55.78
51617;BME280;37697;52.588;13.394;2023-05-25T09:00:20;101972.84;;;17.65;55.66
51617;BME280;37697;52.588;13.394;2023-05-25T09:05:29;101971.80;;;17.82;55.17
51617;BME280;37697;52.588;13.394;2023-05-25T09:10:35;101972.35;;;18.39;54.63
51617;BME280;37697;52.588;13.394;2023-05-25T09:15:41;101967.48;;;19.00;53.79
51617;BME280;37697;52.588;13.394;2023-05-25T09:20:47;101972.41;;;19.08;53.01
51617;BME280;37697;52.588;13.394;2023-05-25T09:25:53;101972.67;;;19.23;52.37
51617;BME280;37697;52.588;13.394;2023-05-25T09:30:59;101973.48;;;19.64;51.97
51617;BME280;37697;52.588;13.394;2023-05-25T09:36:06;101980.29;;;19.66;51.76
51617;BME280;37697;52.588;13.394;2023-05-25T09:41:12;101983.58;;;19.74;51.52
51617;BME280;37697;52.588;13.394;2023-05-25T09:46:17;101978.77;;;19.87;51.00
51617;BME280;37697;52.588;13.394;2023-05-25T09:51:23;101981.92;;;20.20;50.52
51617;BME280;37697;52.588;13.394;2023-05-25T09:56:31;101983.12;;;20.45;49.60
51617;BME280;37697;52.588;13.394;2023-05-25T10:01:36;101988.69;;;20.15;49.03
51617;BME280;37697;52.588;13.394;2023-05-25T10:06:43;101989.77;;;20.35;49.14
51617;BME280;37697;52.588;13.394;2023-05-25T10:11:52;101982.89;;;20.56;48.62
51617;BME280;37697;52.588;13.394;2023-05-25T10:16:59;101985.29;;;20.85;48.64
51617;BME280;37697;52.588;13.394;2023-05-25T10:22:12;101992.41;;;20.94;48.30
51617;BME280;37697;52.588;13.394;2023-05-25T10:27:23;101996.46;;;20.44;47.75
51617;BME280;37697;52.588;13.394;2023-05-25T10:32:32;101999.45;;;20.19;48.12
51617;BME280;37697;52.588;13.394;2023-05-25T10:37:39;101996.44;;;20.03;47.71
51617;BME280;37697;52.588;13.394;2023-05-25T10:42:46;101994.20;;;20.11;47.63
51617;BME280;37697;52.588;13.394;2023-05-25T10:47:52;101986.45;;;20.01;47.65
51617;BME280;37697;52.588;13.394;2023-05-25T10:53:04;101987.98;;;20.42;48.40
51617;BME280;37697;52.588;13.394;2023-05-25T10:58:12;101985.73;;;20.77;47.63
51617;BME280;37697;52.588;13.394;2023-05-25T11:03:17;101982.98;;;20.92;47.43
51617;BME280;37697;52.588;13.394;2023-05-25T11:08:48;101982.90;;;20.96;46.86
51617;BME280;37697;52.588;13.394;2023-05-25T11:13:55;101979.81;;;20.81;46.64
51617;BME280;37697;52.588;13.394;2023-05-25T11:19:00;101980.65;;;21.02;46.25
51617;BME280;37697;52.588;13.394;2023-05-25T11:24:13;101970.71;;;21.36;46.33
51617;BME280;37697;52.588;13.394;2023-05-25T11:29:20;101978.98;;;21.39;45.78
51617;BME280;37697;52.588;13.394;2023-05-25T11:34:26;101987.91;;;21.02;45.59
51617;BME280;37697;52.588;13.394;2023-05-25T11:39:33;101989.77;;;21.16;46.07
51617;BME280;37697;52.588;13.394;2023-05-25T11:44:38;101988.66;;;20.92;45.86
51617;BME280;37697;52.588;13.394;2023-05-25T11:49:45;101987.80;;;20.52;46.36
51617;BME280;37697;52.588;13.394;2023-05-25T11:54:51;101985.32;;;20.17;46.84
51617;BME280;37697;52.588;13.394;2023-05-25T11:59:58;101988.09;;;19.94;47.58
51617;BME280;37697;52.588;13.394;2023-05-25T12:05:06;101989.60;;;19.86;48.26
51617;BME280;37697;52.588;13.394;2023-05-25T12:10:16;101984.98;;;19.75;48.71
51617;BME280;37697;52.588;13.394;2023-05-25T12:15:23;101990.73;;;19.67;49.51
51617;BME280;37697;52.588;13.394;2023-05-25T12:20:29;101984.24;;;19.80;49.89
51617;BME280;37697;52.588;13.394;2023-05-25T12:25:34;101984.78;;;20.24;49.83
51617;BME280;37697;52.588;13.394;2023-05-25T12:30:54;101984.98;;;20.05;49.25
51617;BME280;37697;52.588;13.394;2023-05-25T12:36:01;101983.61;;;20.26;49.25
51617;BME280;37697;52.588;13.394;2023-05-25T12:41:07;101980.64;;;20.28;49.14
51617;BME280;37697;52.588;13.394;2023-05-25T12:46:24;101977.95;;;20.41;49.20
51617;BME280;37697;52.588;13.394;2023-05-25T12:51:39;101978.73;;;20.24;49.06
51617;BME280;37697;52.588;13.394;2023-05-25T12:56:57;101974.59;;;19.90;49.22
51617;BME280;37697;52.588;13.394;2023-05-25T13:02:03;101968.23;;;20.35;49.40
51617;BME280;37697;52.588;13.394;2023-05-25T13:07:10;101965.04;;;20.84;49.20
51617;BME280;37697;52.588;13.394;2023-05-25T13:12:15;101962.12;;;20.72;48.86
51617;BME280;37697;52.588;13.394;2023-05-25T13:17:22;101952.89;;;20.63;48.49
51617;BME280;37697;52.588;13.394;2023-05-25T13:22:27;101948.48;;;21.00;48.26
51617;BME280;37697;52.588;13.394;2023-05-25T13:27:33;101953.14;;;20.81;47.96
51617;BME280;37697;52.588;13.394;2023-05-25T13:32:38;101951.77;;;20.55;48.08
51617;BME280;37697;52.588;13.394;2023-05-25T13:37:43;101947.83;;;20.71;48.16
51617;BME280;37697;52.588;13.394;2023-05-25T13:42:48;101941.69;;;20.52;48.19
51617;BME280;37697;52.588;13.394;2023-05-25T13:47:54;101947.02;;;20.77;48.38
51617;BME280;37697;52.588;13.394;2023-05-25T13:52:59;101946.74;;;20.98;48.25
51617;BME280;37697;52.588;13.394;2023-05-25T13:58:05;101945.80;;;21.12;48.11
51617;BME280;37697;52.588;13.394;2023-05-25T14:03:11;101941.55;;;21.21;47.82
51617;BME280;37697;52.588;13.394;2023-05-25T14:08:16;101939.85;;;21.19;47.29
51617;BME280;37697;52.588;13.394;2023-05-25T14:13:21;101941.22;;;21.21;47.45
51617;BME280;37697;52.588;13.394;2023-05-25T14:18:27;101939.59;;;21.16;47.05
51617;BME280;37697;52.588;13.394;2023-05-25T14:23:32;101940.66;;;21.10;46.53
51617;BME280;37697;52.588;13.394;2023-05-25T14:28:38;101937.05;;;21.00;46.73
51617;BME280;37697;52.588;13.394;2023-05-25T14:33:43;101935.09;;;20.97;46.61
51617;BME280;37697;52.588;13.394;2023-05-25T14:38:48;101932.17;;;20.96;46.77
51617;BME280;37697;52.588;13.394;2023-05-25T14:43:54;101937.30;;;20.89;46.45
51617;BME280;37697;52.588;13.394;2023-05-25T14:49:00;101931.64;;;20.68;46.48
51617;BME280;37697;52.588;13.394;2023-05-25T14:54:06;101928.33;;;20.73;46.94
51617;BME280;37697;52.588;13.394;2023-05-25T14:59:12;101925.08;;;20.94;47.00
51617;BME280;37697;52.588;13.394;2023-05-25T15:04:17;101922.35;;;20.96;46.57
51617;BME280;37697;52.588;13.394;2023-05-25T15:09:24;101921.89;;;20.83;46.86
51617;BME280;37697;52.588;13.394;2023-05-25T15:14:29;101920.16;;;20.69;46.92
51617;BME280;37697;52.588;13.394;2023-05-25T15:19:35;101916.71;;;20.54;46.97
51617;BME280;37697;52.588;13.394;2023-05-25T15:24:40;101914.65;;;20.35;46.88
51617;BME280;37697;52.588;13.394;2023-05-25T15:29:47;101910.39;;;20.21;46.99
51617;BME280;37697;52.588;13.394;2023-05-25T15:34:52;101913.89;;;20.27;47.45
51617;BME280;37697;52.588;13.394;2023-05-25T15:39:57;101915.08;;;20.13;47.44
51617;BME280;37697;52.588;13.394;2023-05-25T15:45:03;101912.27;;;19.95;47.49
51617;BME280;37697;52.588;13.394;2023-05-25T15:50:12;101914.59;;;19.72;47.82
51617;BME280;37697;52.588;13.394;2023-05-25T15:55:17;101912.71;;;19.76;48.05
51617;BME280;37697;52.588;13.394;2023-05-25T16:00:23;101915.14;;;19.70;48.30
51617;BME280;37697;52.588;13.394;2023-05-25T16:05:29;101912.79;;;19.67;48.43
51617;BME280;37697;52.588;13.394;2023-05-25T16:10:35;101915.80;;;19.55;48.68
51617;BME280;37697;52.588;13.394;2023-05-25T16:15:40;101909.48;;;19.49;49.00
51617;BME280;37697;52.588;13.394;2023-05-25T16:20:46;101907.98;;;19.31;48.99
51617;BME280;37697;52.588;13.394;2023-05-25T16:25:53;101910.08;;;19.19;49.06
51617;BME280;37697;52.588;13.394;2023-05-25T16:30:59;101908.77;;;19.22;49.27
51617;BME280;37697;52.588;13.394;2023-05-25T16:36:05;101907.56;;;19.10;49.37
51617;BME280;37697;52.588;13.394;2023-05-25T16:41:11;101906.13;;;19.10;49.63
51617;BME280;37697;52.588;13.394;2023-05-25T16:46:16;101904.73;;;19.05;49.63
51617;BME280;37697;52.588;13.394;2023-05-25T16:51:22;101906.69;;;18.94;49.78
51617;BME280;37697;52.588;13.394;2023-05-25T16:56:27;101908.59;;;18.84;50.03
51617;BME280;37697;52.588;13.394;2023-05-25T17:01:34;101903.32;;;18.91;50.04
51617;BME280;37697;52.588;13.394;2023-05-25T17:06:39;101898.53;;;19.02;49.86
51617;BME280;37697;52.588;13.394;2023-05-25T17:11:44;101893.85;;;19.08;50.01
51617;BME280;37697;52.588;13.394;2023-05-25T17:16:50;101895.73;;;19.02;50.00
51617;BME280;37697;52.588;13.394;2023-05-25T17:21:55;101891.06;;;18.85;49.78
51617;BME280;37697;52.588;13.394;2023-05-25T17:27:01;101892.17;;;18.69;49.97
51617;BME280;37697;52.588;13.394;2023-05-25T17:32:07;101895.02;;;18.53;49.97
51617;BME280;37697;52.588;13.394;2023-05-25T17:37:13;101900.11;;;18.36;49.98
51617;BME280;37697;52.588;13.394;2023-05-25T17:42:18;101900.92;;;18.17;50.29
51617;BME280;37697;52.588;13.394;2023-05-25T17:47:23;101900.92;;;18.05;50.40
51617;BME280;37697;52.588;13.394;2023-05-25T17:52:30;101904.13;;;17.93;50.60
51617;BME280;37697;52.588;13.394;2023-05-25T17:57:35;101908.42;;;17.84;50.99
51617;BME280;37697;52.588;13.394;2023-05-25T18:02:41;101916.03;;;17.68;51.03
51617;BME280;37697;52.588;13.394;2023-05-25T18:07:46;101918.91;;;17.57;51.49
51617;BME280;37697;52.588;13.394;2023-05-25T18:12:52;101917.31;;;17.46;51.84
51617;BME280;37697;52.588;13.394;2023-05-25T18:17:58;101923.05;;;17.30;52.10
51617;BME280;37697;52.588;13.394;2023-05-25T18:23:05;101918.81;;;17.18;52.39
51617;BME280;37697;52.588;13.394;2023-05-25T18:28:12;101924.23;;;17.09;52.63
51617;BME280;37697;52.588;13.394;2023-05-25T18:33:19;101925.64;;;16.98;52.82
51617;BME280;37697;52.588;13.394;2023-05-25T18:38:25;101927.08;;;16.80;53.12
51617;BME280;37697;52.588;13.394;2023-05-25T18:43:30;101928.20;;;16.70;53.45
51617;BME280;37697;52.588;13.394;2023-05-25T18:48:35;101932.45;;;16.60;53.57
51617;BME280;37697;52.588;13.394;2023-05-25T18:53:42;101932.71;;;16.49;53.88
51617;BME280;37697;52.588;13.394;2023-05-25T18:58:48;101934.90;;;16.37;54.22
51617;BME280;37697;52.588;13.394;2023-05-25T19:03:56;101943.94;;;16.26;54.47
51617;BME280;37697;52.588;13.394;2023-05-25T19:09:03;101948.55;;;16.16;54.78
51617;BME280;37697;52.588;13.394;2023-05-25T19:14:08;101947.45;;;16.07;55.07
51617;BME280;37697;52.588;13.394;2023-05-25T19:19:14;101947.63;;;15.97;55.19
51617;BME280;37697;52.588;13.394;2023-05-25T19:24:19;101952.86;;;15.86;55.40
51617;BME280;37697;52.588;13.394;2023-05-25T19:29:25;101955.11;;;15.73;55.71
51617;BME280;37697;52.588;13.394;2023-05-25T19:34:30;101954.73;;;15.60;56.00
51617;BME280;37697;52.588;13.394;2023-05-25T19:39:36;101957.77;;;15.44;56.30
51617;BME280;37697;52.588;13.394;2023-05-25T19:44:41;101969.37;;;15.23;56.80
51617;BME280;37697;52.588;13.394;2023-05-25T19:49:47;101978.47;;;15.01;57.25
51617;BME280;37697;52.588;13.394;2023-05-25T19:54:52;101981.04;;;14.86;57.55
51617;BME280;37697;52.588;13.394;2023-05-25T19:59:57;101982.46;;;14.77;57.94
51617;BME280;37697;52.588;13.394;2023-05-25T20:05:03;101981.55;;;14.68;58.16
51617;BME280;37697;52.588;13.394;2023-05-25T20:10:10;101986.64;;;14.56;58.17
51617;BME280;37697;52.588;13.394;2023-05-25T20:15:15;101994.21;;;14.46;58.46
51617;BME280;37697;52.588;13.394;2023-05-25T20:20:21;101993.77;;;14.35;58.57
51617;BME280;37697;52.588;13.394;2023-05-25T20:25:27;101997.43;;;14.25;58.82
51617;BME280;37697;52.588;13.394;2023-05-25T20:30:32;102004.52;;;14.16;58.64
51617;BME280;37697;52.588;13.394;2023-05-25T20:35:38;102007.02;;;14.04;58.72
51617;BME280;37697;52.588;13.394;2023-05-25T20:40:44;102003.97;;;13.90;58.94
51617;BME280;37697;52.588;13.394;2023-05-25T20:45:49;102007.80;;;13.74;58.93
51617;BME280;37697;52.588;13.394;2023-05-25T20:50:55;102008.45;;;13.60;59.01
51617;BME280;37697;52.588;13.394;2023-05-25T20:56:01;102008.93;;;13.46;59.18
51617;BME280;37697;52.588;13.394;2023-05-25T21:01:07;102008.35;;;13.31;59.28
51617;BME280;37697;52.588;13.394;2023-05-25T21:06:12;102009.34;;;13.16;59.48
51617;BME280;37697;52.588;13.394;2023-05-25T21:11:18;102008.62;;;13.04;59.71
51617;BME280;37697;52.588;13.394;2023-05-25T21:16:24;102014.22;;;12.94;60.06
51617;BME280;37697;52.588;13.394;2023-05-25T21:21:29;102011.05;;;12.84;60.26
51617;BME280;37697;52.588;13.394;2023-05-25T21:26:38;102009.03;;;12.72;60.56
51617;BME280;37697;52.588;13.394;2023-05-25T21:31:43;102017.89;;;12.60;60.66
51617;BME280;37697;52.588;13.394;2023-05-25T21:36:49;102028.90;;;12.49;61.05
51617;BME280;37697;52.588;13.394;2023-05-25T21:41:55;102026.20;;;12.38;61.11
51617;BME280;37697;52.588;13.394;2023-05-25T21:47:00;102027.23;;;12.29;61.46
51617;BME280;37697;52.588;13.394;2023-05-25T21:52:06;102032.63;;;12.21;61.55
51617;BME280;37697;52.588;13.394;2023-05-25T21:57:12;102035.64;;;12.12;61.75
51617;BME280;37697;52.588;13.394;2023-05-25T22:02:17;102038.93;;;12.04;61.92
51617;BME280;37697;52.588;13.394;2023-05-25T22:07:23;102038.55;;;11.99;61.96
51617;BME280;37697;52.588;13.394;2023-05-25T22:12:28;102044.21;;;11.93;62.13
51617;BME280;37697;52.588;13.394;2023-05-25T22:17:34;102052.21;;;11.88;62.18
51617;BME280;37697;52.588;13.394;2023-05-25T22:22:39;102055.04;;;11.82;62.18
51617;BME280;37697;52.588;13.394;2023-05-25T22:27:45;102054.33;;;11.76;62.47
51617;BME280;37697;52.588;13.394;2023-05-25T22:32:50;102057.33;;;11.70;62.48
51617;BME280;37697;52.588;13.394;2023-05-25T22:37:56;102058.10;;;11.67;62.68
51617;BME280;37697;52.588;13.394;2023-05-25T22:43:01;102059.20;;;11.62;62.59
51617;BME280;37697;52.588;13.394;2023-05-25T22:48:07;102060.55;;;11.54;62.57
51617;BME280;37697;52.588;13.394;2023-05-25T22:53:13;102065.20;;;11.45;62.73
51617;BME280;37697;52.588;13.394;2023-05-25T22:58:18;102069.71;;;11.35;62.80
51617;BME280;37697;52.588;13.394;2023-05-25T23:03:24;102069.23;;;11.25;62.97
51617;BME280;37697;52.588;13.394;2023-05-25T23:08:30;102069.55;;;11.15;63.16
51617;BME280;37697;52.588;13.394;2023-05-25T23:13:35;102070.70;;;11.04;63.27
51617;BME280;37697;52.588;13.394;2023-05-25T23:18:41;102071.79;;;10.92;63.55
51617;BME280;37697;52.588;13.394;2023-05-25T23:23:46;102072.76;;;10.79;63.63
51617;BME280;37697;52.588;13.394;2023-05-25T23:28:52;102070.97;;;10.68;63.76
51617;BME280;37697;52.588;13.394;2023-05-25T23:33:57;102066.36;;;10.56;64.06
51617;BME280;37697;52.588;13.394;2023-05-25T23:39:03;102066.15;;;10.46;64.34
51617;BME280;37697;52.588;13.394;2023-05-25T23:44:08;102063.14;;;10.35;64.48
51617;BME280;37697;52.588;13.394;2023-05-25T23:49:14;102060.31;;;10.24;64.72
51617;BME280;37697;52.588;13.394;2023-05-25T23:54:19;102062.02;;;10.10;65.23
51617;BME280;37697;52.588;13.394;2023-05-25T23:59:25;102063.05;;;9.97;65.04
